createdAt,value
2023-02-21T00:04:54.773Z,101295.38
2023-02-21T00:10:09.876Z,101306.25
2023-02-21T00:15:25.689Z,101304.66
2023-02-21T00:20:40.794Z,101310.09
2023-02-21T00:25:55.806Z,101310.09
2023-02-21T00:31:11.105Z,101326.97
2023-02-21T00:36:26.518Z,101319.91
2023-02-21T00:41:41.634Z,101326.97
2023-02-21T00:46:57.240Z,101317.47
2023-02-21T00:52:12.599Z,101331.38
2023-02-21T00:57:27.494Z,101329.72
2023-02-21T01:02:42.604Z,101331.09
2023-02-21T01:07:57.910Z,101328.69
2023-02-21T01:13:13.750Z,101329.22
2023-02-21T01:18:29.349Z,101341.22
2023-02-21T01:23:44.360Z,101338.50
2023-02-21T01:28:59.378Z,101348.31
2023-02-21T01:34:14.582Z,101327.34
2023-02-21T01:39:30.080Z,101324.94
2023-02-21T01:44:51.868Z,101334.16
2023-02-21T01:50:06.860Z,101331.72
2023-02-21T01:55:22.971Z,101341.78
2023-02-21T02:00:38.497Z,101335.53
2023-02-21T02:05:55.016Z,101341.25
2023-02-21T02:11:37.408Z,101337.16
2023-02-21T02:16:53.057Z,101335.81
2023-02-21T02:22:18.506Z,101339.38
2023-02-21T02:27:40.514Z,101338.00
2023-02-21T02:32:39.643Z,101339.63
2023-02-21T02:38:26.901Z,101343.97
2023-02-21T02:43:33.717Z,101345.63
2023-02-21T02:49:05.669Z,101349.41
2023-02-21T02:54:02.815Z,101353.78
2023-02-21T02:59:18.004Z,101349.94
2023-02-21T03:04:39.193Z,101350.25
2023-02-21T03:09:53.901Z,101343.72
2023-02-21T03:14:59.605Z,101349.97
2023-02-21T03:19:59.098Z,101341.28
2023-02-21T03:24:56.381Z,101352.72
2023-02-21T03:29:56.200Z,101349.72
2023-02-21T03:34:52.812Z,101347.28
2023-02-21T03:39:49.248Z,101352.22
2023-02-21T03:44:45.673Z,101348.66
2023-02-21T03:49:42.064Z,101358.75
2023-02-21T03:54:42.030Z,101378.38
2023-02-21T03:59:38.673Z,101363.13
2023-02-21T04:04:35.070Z,101365.84
2023-02-21T04:09:31.585Z,101363.69
2023-02-21T04:14:28.128Z,101364.78
2023-02-21T04:19:24.535Z,101380.56
2023-02-21T04:24:20.971Z,101375.38
2023-02-21T04:29:17.586Z,101381.63
2023-02-21T04:34:14.537Z,101373.47
2023-02-21T04:39:11.032Z,101367.81
2023-02-21T04:44:07.444Z,101366.75
2023-02-21T04:49:04.509Z,101357.84
2023-02-21T04:54:01.120Z,101352.97
2023-02-21T04:58:57.549Z,101358.69
2023-02-21T05:03:54.006Z,101356.78
2023-02-21T05:08:50.999Z,101348.38
2023-02-21T05:13:48.429Z,101350.53
2023-02-21T05:18:47.190Z,101354.34
2023-02-21T05:23:55.836Z,101375.28
2023-02-21T05:28:52.949Z,101376.63
2023-02-21T05:33:49.382Z,101378.00
2023-02-21T05:38:51.301Z,101373.09
2023-02-21T05:43:49.734Z,101377.44
2023-02-21T05:48:46.698Z,101384.22
2023-02-21T05:53:43.206Z,101397.81
2023-02-21T05:58:40.012Z,101401.88
2023-02-21T06:03:36.547Z,101398.91
2023-02-21T06:08:33.053Z,101411.13
2023-02-21T06:13:30.560Z,101406.50
2023-02-21T06:18:28.072Z,101413.28
2023-02-21T06:23:24.547Z,101418.19
2023-02-21T06:28:20.972Z,101424.69
2023-02-21T06:33:17.433Z,101428.50
2023-02-21T06:38:13.899Z,101426.88
2023-02-21T06:43:10.308Z,101426.88
2023-02-21T06:48:08.130Z,101432.31
2023-02-21T06:53:04.778Z,101438.53
2023-02-21T06:58:01.201Z,101433.38
2023-02-21T07:02:57.777Z,101426.88
2023-02-21T07:07:54.157Z,101434.47
2023-02-21T07:12:50.700Z,101433.91
2023-02-21T07:17:47.118Z,101441.25
2023-02-21T07:22:43.488Z,101452.94
2023-02-21T07:27:39.926Z,101459.72
2023-02-21T07:32:36.418Z,101462.19
2023-02-21T07:37:33.264Z,101464.91
2023-02-21T07:42:29.778Z,101466.00
2023-02-21T07:47:27.585Z,101457.84
2023-02-21T07:52:24.012Z,101471.97
2023-02-21T07:57:20.451Z,101489.34
2023-02-21T08:02:16.880Z,101499.13
2023-02-21T08:07:13.258Z,101498.88
2023-02-21T08:12:09.718Z,101502.94
2023-02-21T08:17:06.195Z,101512.69
2023-02-21T08:22:02.623Z,101516.50
2023-02-21T08:26:59.007Z,101510.78
2023-02-21T08:31:55.465Z,101511.91
2023-02-21T08:36:51.909Z,101501.81
2023-02-21T08:41:52.440Z,101507.25
2023-02-21T08:46:49.887Z,101510.53
2023-02-21T08:51:47.484Z,101521.38
2023-02-21T08:56:43.865Z,101512.91
2023-02-21T09:01:40.314Z,101512.31
2023-02-21T09:06:36.908Z,101529.47
2023-02-21T09:11:33.346Z,101533.25
2023-02-21T09:16:29.800Z,101532.72
2023-02-21T09:21:26.690Z,101533.75
2023-02-21T09:26:24.234Z,101536.50
2023-02-21T09:31:20.877Z,101547.94
2023-02-21T09:36:23.518Z,101556.09
2023-02-21T09:41:19.922Z,101543.53
2023-02-21T09:46:30.878Z,101554.94
2023-02-21T09:51:28.230Z,101547.28
2023-02-21T09:56:39.037Z,101548.84
2023-02-21T10:01:53.022Z,101551.91
2023-02-21T10:07:16.687Z,101544.72
2023-02-21T10:12:32.252Z,101552.66
2023-02-21T10:17:55.718Z,101557.19
2023-02-21T10:22:53.232Z,101547.31
2023-02-21T10:27:52.129Z,101559.06
2023-02-21T10:32:48.559Z,101551.34
2023-02-21T10:37:54.948Z,101557.63
2023-02-21T10:43:01.384Z,101557.13
2023-02-21T10:48:05.148Z,101562.25
2023-02-21T10:53:01.602Z,101565.81
2023-02-21T10:57:59.497Z,101554.19
2023-02-21T11:03:02.392Z,101551.69
2023-02-21T11:08:07.543Z,101553.91
2023-02-21T11:13:15.421Z,101557.56
2023-02-21T11:18:18.009Z,101551.22
2023-02-21T11:23:40.454Z,101551.78
2023-02-21T11:28:44.912Z,101543.50
2023-02-21T11:34:02.925Z,101541.34
2023-02-21T11:39:29.592Z,101533.53
2023-02-21T11:44:36.202Z,101526.53
2023-02-21T11:49:32.650Z,101545.91
2023-02-21T11:54:30.549Z,101538.69
2023-02-21T11:59:58.877Z,101537.41
2023-02-21T12:05:23.008Z,101533.34
2023-02-21T12:10:45.543Z,101539.59
2023-02-21T12:16:06.633Z,101555.41
2023-02-21T12:21:28.013Z,101556.22
2023-02-21T12:26:47.512Z,101549.75
2023-02-21T12:32:05.516Z,101553.84
2023-02-21T12:37:25.815Z,101569.97
2023-02-21T12:42:50.267Z,101565.59
2023-02-21T12:48:02.270Z,101559.53
2023-02-21T12:53:26.417Z,101556.22
2023-02-21T12:58:33.285Z,101557.81
2023-02-21T13:03:45.353Z,101558.97
2023-02-21T13:08:54.802Z,101550.88
2023-02-21T13:13:51.217Z,101550.78
2023-02-21T13:19:01.925Z,101567.34
2023-02-21T13:24:14.870Z,101556.56
2023-02-21T13:29:21.829Z,101555.91
2023-02-21T13:34:24.304Z,101560.59
2023-02-21T13:39:37.411Z,101554.78
2023-02-21T13:44:35.760Z,101555.75
2023-02-21T13:49:50.858Z,101553.28
2023-02-21T13:55:15.169Z,101538.00
2023-02-21T14:00:29.869Z,101530.91
2023-02-21T14:05:52.942Z,101535.13
2023-02-21T14:10:55.374Z,101563.94
2023-02-21T14:16:17.341Z,101569.50
2023-02-21T14:21:22.415Z,101569.16
2023-02-21T14:26:45.095Z,101561.16
2023-02-21T14:31:59.721Z,101566.63
2023-02-21T14:37:00.753Z,101562.78
2023-02-21T14:42:14.631Z,101563.63
2023-02-21T14:47:38.503Z,101568.28
2023-02-21T14:52:56.573Z,101560.63
2023-02-21T14:58:30.331Z,101570.06
2023-02-21T15:03:34.713Z,101573.47
2023-02-21T15:08:41.679Z,101581.94
2023-02-21T15:13:38.109Z,101580.25
2023-02-21T15:18:39.860Z,101581.97
2023-02-21T15:23:38.275Z,101586.84
2023-02-21T15:28:34.655Z,101582.47
2023-02-21T15:33:36.243Z,101583.03
2023-02-21T15:38:41.325Z,101580.34
2023-02-21T15:43:45.773Z,101575.47
2023-02-21T15:48:42.250Z,101581.22
2023-02-21T15:53:38.841Z,101584.81
2023-02-21T15:58:35.926Z,101584.88
2023-02-21T16:03:42.129Z,101591.44
2023-02-21T16:09:06.668Z,101587.59
2023-02-21T16:14:04.200Z,101591.69
2023-02-21T16:19:01.423Z,101595.28
2023-02-21T16:24:26.819Z,101601.81
2023-02-21T16:29:23.260Z,101609.69
2023-02-21T16:34:19.643Z,101614.06
2023-02-21T16:39:16.089Z,101622.53
2023-02-21T16:44:13.061Z,101630.94
2023-02-21T16:49:10.693Z,101624.69
2023-02-21T16:54:09.401Z,101628.00
2023-02-21T16:59:15.872Z,101628.53
2023-02-21T17:04:22.668Z,101637.78
2023-02-21T17:09:23.675Z,101637.22
2023-02-21T17:14:20.932Z,101648.66
2023-02-21T17:19:19.752Z,101653.28
2023-02-21T17:24:17.251Z,101653.00
2023-02-21T17:29:13.730Z,101660.09
2023-02-21T17:34:12.850Z,101657.34
2023-02-21T17:39:09.271Z,101662.78
2023-02-21T17:44:06.793Z,101669.31
2023-02-21T17:49:03.215Z,101663.91
2023-02-21T17:53:59.674Z,101677.50
2023-02-21T17:58:57.236Z,101688.91
2023-02-21T18:03:53.740Z,101691.09
2023-02-21T18:08:50.220Z,101696.53
2023-02-21T18:13:47.062Z,101703.59
2023-02-21T18:18:43.994Z,101711.75
2023-02-21T18:23:43.868Z,101706.31
2023-02-21T18:28:40.844Z,101702.50
2023-02-21T18:33:37.362Z,101716.09
2023-02-21T18:38:33.827Z,101712.81
2023-02-21T18:43:30.762Z,101715.03
2023-02-21T18:48:27.398Z,101726.44
2023-02-21T18:53:23.783Z,101721.53
2023-02-21T18:58:20.602Z,101705.22
2023-02-21T19:03:17.091Z,101719.09
2023-02-21T19:08:13.506Z,101716.66
2023-02-21T19:13:09.932Z,101716.66
2023-02-21T19:18:06.333Z,101712.28
2023-02-21T19:23:02.718Z,101719.66
2023-02-21T19:28:02.329Z,101718.00
2023-02-21T19:32:59.537Z,101725.34
2023-02-21T19:37:56.691Z,101720.75
2023-02-21T19:42:53.154Z,101730.78
2023-02-21T19:47:49.591Z,101729.97
2023-02-21T19:52:52.301Z,101728.34
2023-02-21T19:57:48.993Z,101737.34
2023-02-21T20:02:46.388Z,101734.06
2023-02-21T20:07:43.069Z,101747.41
2023-02-21T20:12:39.587Z,101747.41
2023-02-21T20:17:37.644Z,101736.81
2023-02-21T20:22:34.175Z,101732.44
2023-02-21T20:27:30.684Z,101738.41
2023-02-21T20:32:27.139Z,101749.59
2023-02-21T20:37:24.279Z,101741.16
2023-02-21T20:42:22.751Z,101744.94
2023-02-21T20:47:19.753Z,101740.31
2023-02-21T20:52:16.602Z,101737.91
2023-02-21T20:57:13.400Z,101744.97
2023-02-21T21:02:10.238Z,101747.66
2023-02-21T21:07:16.343Z,101735.19
2023-02-21T21:12:17.140Z,101744.41
2023-02-21T21:17:17.280Z,101743.88
2023-02-21T21:22:16.438Z,101748.78
2023-02-21T21:27:15.211Z,101747.13
2023-02-21T21:32:14.763Z,101743.34
2023-02-21T21:37:11.536Z,101749.59
2023-02-21T21:42:11.250Z,101751.50
2023-02-21T21:47:07.962Z,101742.22
2023-02-21T21:52:04.906Z,101738.44
2023-02-21T21:57:04.071Z,101740.59
2023-02-21T22:02:00.499Z,101740.34
2023-02-21T22:06:56.994Z,101744.13
2023-02-21T22:11:53.792Z,101731.38
2023-02-21T22:16:52.202Z,101733.53
2023-02-21T22:21:49.367Z,101724.25
2023-02-21T22:26:46.087Z,101725.91
2023-02-21T22:31:43.882Z,101729.69
2023-02-21T22:36:46.470Z,101731.88
2023-02-21T22:41:43.515Z,101723.72
2023-02-21T22:46:41.913Z,101721.56
2023-02-21T22:51:38.733Z,101721.53
2023-02-21T22:56:38.361Z,101718.28
2023-02-21T23:01:35.179Z,101721.56
2023-02-21T23:06:32.592Z,101715.56
2023-02-21T23:11:31.212Z,101711.19
2023-02-21T23:16:27.679Z,101704.13
2023-02-21T23:21:24.269Z,101704.94
2023-02-21T23:26:20.648Z,101700.31
2023-02-21T23:31:18.707Z,101697.03
2023-02-21T23:36:23.437Z,101688.88
2023-02-21T23:41:20.423Z,101689.16
2023-02-21T23:46:20.315Z,101697.03
2023-02-21T23:51:17.803Z,101701.94
2023-02-21T23:56:14.956Z,101693.78
